Time;durP1;ratioP1;P1;durP2;ratioP2;P2;SDS_P1;SDS_P2;PMS_P1;PMS_P2;Temp;Humidity;BMP_temperature;BMP_pressure;BME280_temperature;BME280_humidity;BME280_pressure;Samples;Min_cycle;Max_cycle;Signal;HPM_P1;HPM_P2
2022/09/04 10:55:01;;;;;;;8.85;5.85;;;22.20;99.90;;;;;;2552280;26;87644;-96
2022/09/04 10:58:17;;;;;;;6.97;4.00;;;22.20;99.90;;;;;;6071615;28;92390;-95
2022/09/04 11:01:52;;;;;;;7.45;4.22;;;22.20;99.90;;;;;;6063029;28;89589;-96
2022/09/04 11:05:28;;;;;;;7.93;4.72;;;22.20;99.90;;;;;;6042379;28;90636;-95
2022/09/04 11:08:59;;;;;;;6.30;3.70;;;22.30;99.90;;;;;;6054380;28;89432;-96
2022/09/04 11:12:30;;;;;;;5.95;3.95;;;22.20;99.90;;;;;;6042817;28;88124;-96
2022/09/04 11:15:52;;;;;;;7.45;4.30;;;22.30;99.90;;;;;;5981051;28;88644;-96
2022/09/04 11:19:44;;;;;;;4.85;3.75;;;22.30;99.90;;;;;;6052494;28;91357;-96
2022/09/04 11:23:19;;;;;;;4.30;3.47;;;22.30;99.90;;;;;;6061924;28;88969;-96
2022/09/04 11:27:06;;;;;;;4.50;3.30;;;22.30;99.90;;;;;;6055210;28;89138;-96
2022/09/04 11:30:16;;;;;;;3.95;3.30;;;22.30;99.90;;;;;;6064616;28;88704;-96
2022/09/04 11:34:01;;;;;;;3.95;3.10;;;22.30;99.90;;;;;;6056537;28;91961;-96
2022/09/04 11:37:46;;;;;;;3.65;2.92;;;22.30;99.90;;;;;;6046921;28;89875;-96
2022/09/04 11:41:42;;;;;;;6.63;3.67;;;22.30;99.90;;;;;;6058299;28;89322;-96
2022/09/04 11:45:16;;;;;;;3.10;2.80;;;22.30;99.90;;;;;;5954639;28;89624;-96
2022/09/04 11:48:45;;;;;;;3.90;2.78;;;22.30;99.90;;;;;;6065452;28;88250;-96
2022/09/04 11:52:17;;;;;;;3.42;2.72;;;22.30;99.90;;;;;;6064493;28;88942;-96
2022/09/04 11:55:48;;;;;;;3.83;3.00;;;22.30;99.90;;;;;;6041037;28;88024;-96
2022/09/04 11:59:16;;;;;;;3.92;3.00;;;22.30;99.90;;;;;;6060037;28;89605;-96
2022/09/04 12:02:56;;;;;;;2.95;2.70;;;22.40;99.90;;;;;;6045881;28;89102;-96
2022/09/04 12:06:33;;;;;;;3.05;2.85;;;22.40;99.90;;;;;;6057237;28;87244;-96
2022/09/04 12:10:00;;;;;;;2.80;2.55;;;22.40;99.90;;;;;;6024049;28;87401;-96
2022/09/04 12:13:38;;;;;;;3.67;2.80;;;22.40;99.90;;;;;;6051259;28;88333;-96
2022/09/04 12:17:21;;;;;;;4.57;2.83;;;22.30;99.90;;;;;;6033686;28;89347;-96
2022/09/04 12:21:02;;;;;;;2.90;2.50;;;22.40;99.90;;;;;;6046940;28;89564;-96
2022/09/04 12:24:25;;;;;;;2.97;2.42;;;22.30;99.90;;;;;;6054317;28;88498;-96
2022/09/04 12:28:17;;;;;;;2.50;2.30;;;22.30;99.90;;;;;;6057681;28;89682;-96
2022/09/04 12:31:46;;;;;;;4.40;2.70;;;22.40;99.90;;;;;;6041225;28;88008;-96
2022/09/04 12:35:28;;;;;;;2.78;2.20;;;22.40;99.90;;;;;;6040776;28;89608;-96
2022/09/04 12:39:02;;;;;;;2.35;2.15;;;22.40;99.90;;;;;;6054314;28;89728;-96
2022/09/04 12:42:11;;;;;;;2.20;1.95;;;22.40;99.90;;;;;;6064086;28;88382;-96
2022/09/04 12:45:24;;;;;;;2.85;2.22;;;22.30;99.90;;;;;;6055671;28;88357;-96
2022/09/04 12:48:35;;;;;;;2.30;2.10;;;22.40;99.90;;;;;;6052967;28;89411;-96
2022/09/04 12:51:47;;;;;;;2.45;2.00;;;22.40;99.90;;;;;;6052931;28;88055;-96
2022/09/04 12:55:02;;;;;;;2.30;2.10;;;22.40;99.90;;;;;;6043792;28;89085;-96
2022/09/04 12:58:16;;;;;;;2.05;1.90;;;22.40;99.90;;;;;;6065649;28;89554;-96
2022/09/04 13:01:30;;;;;;;2.17;1.98;;;22.40;99.90;;;;;;6056437;28;89091;-96
2022/09/04 13:04:45;;;;;;;1.90;1.80;;;22.40;99.90;;;;;;6058933;28;89722;-96
2022/09/04 13:07:56;;;;;;;2.20;2.00;;;22.40;99.90;;;;;;6050630;28;88409;-96
2022/09/04 13:11:07;;;;;;;2.05;1.85;;;22.40;99.90;;;;;;6058684;28;89178;-96
2022/09/04 13:14:36;;;;;;;2.70;2.20;;;22.40;99.90;;;;;;6052356;28;88394;-96
2022/09/04 13:17:50;;;;;;;2.97;1.95;;;22.40;99.90;;;;;;6047932;28;89047;-96
2022/09/04 13:20:59;;;;;;;2.38;2.10;;;22.40;99.90;;;;;;6062633;28;89228;-96
2022/09/04 13:24:13;;;;;;;2.83;2.05;;;22.40;99.90;;;;;;6061395;28;90629;-96
2022/09/04 13:27:33;;;;;;;2.25;2.05;;;22.40;99.90;;;;;;6061746;28;89444;-96
2022/09/04 13:30:47;;;;;;;2.08;1.88;;;22.40;99.90;;;;;;6063258;28;89427;-96
2022/09/04 13:33:57;;;;;;;2.10;1.90;;;22.40;99.90;;;;;;6062283;28;89521;-96
2022/09/04 13:37:09;;;;;;;2.20;2.00;;;22.40;99.90;;;;;;6050791;28;88355;-96
2022/09/04 13:40:21;;;;;;;2.10;1.90;;;22.40;99.90;;;;;;6042649;28;89040;-95
2022/09/04 13:44:03;;;;;;;2.38;2.00;;;22.50;99.90;;;;;;6039924;28;89493;-96
2022/09/04 13:47:09;;;;;;;2.10;1.90;;;22.40;99.90;;;;;;6052986;28;87494;-96
2022/09/04 13:50:17;;;;;;;2.08;1.90;;;22.50;99.90;;;;;;6040102;28;91684;-96
2022/09/04 13:53:25;;;;;;;2.20;2.00;;;22.50;99.90;;;;;;6061274;28;89533;-96
2022/09/04 13:56:33;;;;;;;2.10;1.90;;;22.40;99.90;;;;;;6052604;28;89056;-96
2022/09/04 13:59:37;;;;;;;1.85;1.73;;;22.50;99.90;;;;;;6048584;28;89574;-96
2022/09/04 14:02:42;;;;;;;2.17;1.98;;;22.40;99.90;;;;;;6061335;28;87081;-96
2022/09/04 14:05:45;;;;;;;1.90;1.80;;;22.50;99.90;;;;;;6044588;28;89516;-96
2022/09/04 14:08:49;;;;;;;3.10;1.95;;;22.50;99.90;;;;;;6055716;28;89389;-96
2022/09/04 14:12:14;;;;;;;2.63;1.90;;;22.50;99.90;;;;;;6060658;28;88129;-96
2022/09/04 14:15:58;;;;;;;1.98;1.88;;;22.50;99.90;;;;;;6044406;28;89461;-96
2022/09/04 14:19:30;;;;;;;2.25;1.90;;;22.50;99.90;;;;;;6025618;28;89454;-96
2022/09/04 14:22:44;;;;;;;2.15;1.95;;;22.50;99.90;;;;;;6050695;28;87267;-96
2022/09/04 14:25:56;;;;;;;2.03;1.92;;;22.50;99.90;;;;;;6039541;28;89082;-96
2022/09/04 14:29:09;;;;;;;2.00;1.90;;;22.50;99.90;;;;;;6047436;28;90518;-96
2022/09/04 14:32:22;;;;;;;1.95;1.85;;;22.50;99.90;;;;;;6047963;28;88732;-96
2022/09/04 14:35:33;;;;;;;2.42;2.00;;;22.50;99.90;;;;;;6060152;28;89054;-96
2022/09/04 14:39:00;;;;;;;1.98;1.88;;;22.50;99.90;;;;;;6061904;28;89465;-95
2022/09/04 14:42:27;;;;;;;2.55;1.92;;;22.50;99.90;;;;;;6058029;28;89470;-96
2022/09/04 14:45:49;;;;;;;2.05;1.80;;;22.50;99.90;;;;;;6050080;28;89020;-96
2022/09/04 14:49:02;;;;;;;3.00;1.90;;;22.50;99.90;;;;;;6039362;28;91247;-96
2022/09/04 14:52:18;;;;;;;1.80;1.70;;;22.50;99.90;;;;;;6041206;28;88335;-96
2022/09/04 14:55:29;;;;;;;2.00;1.77;;;22.50;99.90;;;;;;6052290;28;89322;-96
2022/09/04 14:58:36;;;;;;;1.80;1.70;;;22.50;99.90;;;;;;6039194;28;90323;-96
2022/09/04 15:02:13;;;;;;;2.55;1.83;;;22.50;99.90;;;;;;6059285;28;89586;-96
2022/09/04 15:05:22;;;;;;;3.20;2.28;;;22.50;99.90;;;;;;6053487;28;89146;-95
2022/09/04 15:08:33;;;;;;;2.78;1.85;;;22.50;99.90;;;;;;6044642;28;87967;-96
2022/09/04 15:11:35;;;;;;;2.00;1.80;;;22.50;99.90;;;;;;6040741;28;89111;-96
2022/09/04 15:14:39;;;;;;;2.10;1.90;;;22.50;99.90;;;;;;6041044;28;88007;-96
2022/09/04 15:17:51;;;;;;;1.90;1.70;;;22.50;99.90;;;;;;6038304;28;89048;-96
2022/09/04 15:20:58;;;;;;;1.83;1.73;;;22.50;99.90;;;;;;6054460;28;89291;-96
2022/09/04 15:24:11;;;;;;;1.95;1.77;;;22.50;99.90;;;;;;6084458;28;88340;-96
2022/09/04 15:27:18;;;;;;;1.70;1.60;;;22.50;99.90;;;;;;6046373;28;88632;-96
2022/09/04 15:30:22;;;;;;;1.88;1.73;;;22.50;99.90;;;;;;6054607;28;90827;-95
2022/09/04 15:33:25;;;;;;;2.10;1.90;;;22.60;99.90;;;;;;6047588;28;89602;-96
2022/09/04 15:36:27;;;;;;;2.10;1.90;;;22.60;99.90;;;;;;6063281;28;89004;-96
2022/09/04 15:39:36;;;;;;;2.92;1.90;;;22.60;99.90;;;;;;6050550;28;89041;-96
2022/09/04 15:42:44;;;;;;;1.92;1.80;;;22.60;99.90;;;;;;6055136;28;89102;-96
2022/09/04 15:45:56;;;;;;;2.42;1.90;;;22.60;99.90;;;;;;6042479;28;89407;-96
2022/09/04 15:49:16;;;;;;;1.90;1.70;;;22.60;99.90;;;;;;6054226;28;89290;-96
2022/09/04 15:52:31;;;;;;;2.53;1.98;;;22.60;99.90;;;;;;6053434;28;89627;-96
2022/09/04 15:55:38;;;;;;;2.17;1.98;;;22.50;99.90;;;;;;6055709;28;87310;-96
2022/09/04 15:58:51;;;;;;;2.13;1.80;;;22.60;99.90;;;;;;6065140;28;89346;-96
2022/09/04 16:02:10;;;;;;;3.33;1.70;;;22.50;99.90;;;;;;6063942;28;89087;-96
2022/09/04 16:05:17;;;;;;;2.33;2.00;;;22.50;99.90;;;;;;6045992;28;89965;-96
2022/09/04 16:08:24;;;;;;;3.33;2.08;;;22.50;99.90;;;;;;6058859;28;88252;-96
2022/09/04 16:11:33;;;;;;;2.92;2.13;;;22.60;99.90;;;;;;6045414;28;87877;-96
2022/09/04 16:14:42;;;;;;;2.72;2.05;;;22.50;99.90;;;;;;6043884;28;87534;-96
2022/09/04 16:17:51;;;;;;;2.42;1.73;;;22.60;99.90;;;;;;6041307;28;88349;-96
2022/09/04 16:20:58;;;;;;;1.75;1.60;;;22.60;99.90;;;;;;6075614;28;89068;-96
2022/09/04 16:24:07;;;;;;;2.38;2.05;;;22.60;99.90;;;;;;6051862;28;89351;-96
2022/09/04 16:27:14;;;;;;;2.08;1.90;;;22.60;99.90;;;;;;6064497;28;87244;-96
2022/09/04 16:30:31;;;;;;;2.00;1.80;;;22.50;99.90;;;;;;6063220;28;88027;-96
2022/09/04 16:33:35;;;;;;;2.03;1.83;;;22.60;99.90;;;;;;6055389;28;88213;-96
2022/09/04 16:36:42;;;;;;;2.20;2.00;;;22.60;99.90;;;;;;6059474;28;90227;-96
2022/09/04 16:39:59;;;;;;;2.10;1.90;;;22.60;99.90;;;;;;6057990;28;88085;-96
2022/09/04 16:43:16;;;;;;;2.38;1.80;;;22.60;99.90;;;;;;6046430;28;89176;-96
2022/09/04 16:46:26;;;;;;;2.00;1.80;;;22.60;99.90;;;;;;6062956;28;89385;-96
2022/09/04 16:49:39;;;;;;;2.08;1.90;;;22.60;99.90;;;;;;6050672;28;88185;-96
2022/09/04 16:53:01;;;;;;;2.00;1.80;;;22.60;99.90;;;;;;6063452;28;91649;-96
2022/09/04 16:56:07;;;;;;;2.00;1.80;;;22.60;99.90;;;;;;6049716;28;89298;-96
2022/09/04 16:59:24;;;;;;;2.65;1.85;;;22.60;99.90;;;;;;6059505;28;88626;-96
2022/09/04 17:02:35;;;;;;;2.10;1.88;;;22.60;99.90;;;;;;6053039;28;89004;-96
2022/09/04 17:05:44;;;;;;;2.10;1.92;;;22.60;99.90;;;;;;6041870;28;87985;-96
2022/09/04 17:08:56;;;;;;;1.80;1.70;;;22.50;99.90;;;;;;6055665;28;90159;-96
2022/09/04 17:12:06;;;;;;;1.80;1.70;;;22.60;99.90;;;;;;6056431;28;88727;-96
2022/09/04 17:15:22;;;;;;;3.13;2.03;;;22.60;99.90;;;;;;6044219;28;87991;-96
2022/09/04 17:18:27;;;;;;;2.20;2.00;;;22.60;99.90;;;;;;6058297;28;89020;-96
2022/09/04 17:25:05;;;;;;;2.65;1.98;;;22.60;99.90;;;;;;6048441;28;87254;-96
2022/09/04 17:28:30;;;;;;;2.65;1.83;;;22.60;99.90;;;;;;6057909;28;89102;-96
2022/09/04 17:31:41;;;;;;;2.53;1.90;;;22.60;99.90;;;;;;6062328;28;87644;-96
2022/09/04 17:34:54;;;;;;;2.90;2.00;;;22.60;99.90;;;;;;6053490;28;89577;-96
2022/09/04 17:38:04;;;;;;;3.10;2.22;;;22.60;99.90;;;;;;6057593;28;89505;-96
2022/09/04 17:41:19;;;;;;;2.85;2.10;;;22.60;99.90;;;;;;6055202;28;89950;-96
2022/09/04 17:44:38;;;;;;;3.08;2.22;;;22.50;99.90;;;;;;6042303;28;89110;-96
2022/09/04 17:47:42;;;;;;;2.28;2.03;;;22.60;99.90;;;;;;6044163;28;87645;-96
2022/09/04 17:50:49;;;;;;;2.33;1.92;;;22.60;99.90;;;;;;6059795;28;88686;-96
2022/09/04 17:53:57;;;;;;;2.05;1.85;;;22.60;99.90;;;;;;6062933;28;87994;-96
2022/09/04 17:57:04;;;;;;;2.25;1.88;;;22.60;99.90;;;;;;6038966;28;88326;-96
2022/09/04 18:00:19;;;;;;;4.00;2.47;;;22.60;99.90;;;;;;6055291;28;88310;-96
2022/09/04 18:03:30;;;;;;;3.08;2.30;;;22.60;99.90;;;;;;6048524;28;87158;-96
2022/09/04 18:06:39;;;;;;;4.35;2.70;;;22.60;99.90;;;;;;6058899;28;89644;-95
2022/09/04 18:09:49;;;;;;;4.03;2.45;;;22.60;99.90;;;;;;6062033;28;88279;-96
2022/09/04 18:13:03;;;;;;;2.42;1.80;;;22.60;99.90;;;;;;6048886;28;89169;-96
2022/09/04 18:16:20;;;;;;;1.85;1.75;;;22.60;99.90;;;;;;6061516;28;89681;-96
2022/09/04 18:19:28;;;;;;;2.22;2.00;;;22.60;99.90;;;;;;6049838;28;91243;-96
2022/09/04 18:23:04;;;;;;;1.73;1.63;;;22.60;99.90;;;;;;6049616;28;89319;-96
2022/09/04 18:26:16;;;;;;;2.13;1.80;;;22.60;99.90;;;;;;6036142;28;88439;-95
2022/09/04 18:29:34;;;;;;;2.20;2.00;;;22.60;99.90;;;;;;6039513;28;89414;-96
2022/09/04 18:32:46;;;;;;;2.50;2.15;;;22.60;99.90;;;;;;6049319;28;87945;-96
2022/09/04 18:35:57;;;;;;;2.47;1.98;;;22.60;99.90;;;;;;6051275;28;88302;-96
2022/09/04 18:39:06;;;;;;;2.47;2.10;;;22.60;99.90;;;;;;6039167;28;88588;-96
2022/09/04 18:42:37;;;;;;;2.20;2.00;;;22.60;99.90;;;;;;6039383;28;87990;-96
2022/09/04 18:45:47;;;;;;;2.63;2.13;;;22.60;99.90;;;;;;6041081;28;90412;-96
2022/09/04 18:48:59;;;;;;;2.20;2.00;;;22.60;99.90;;;;;;6051315;28;89383;-96
2022/09/04 18:52:05;;;;;;;2.55;2.30;;;22.60;99.90;;;;;;6050493;28;88408;-96
2022/09/04 18:55:14;;;;;;;2.42;1.90;;;22.60;99.90;;;;;;6042515;28;87940;-96
2022/09/04 18:58:41;;;;;;;2.25;1.90;;;22.60;99.90;;;;;;6063452;28;89357;-96
2022/09/04 19:01:47;;;;;;;2.30;2.10;;;22.60;99.90;;;;;;6050539;28;89092;-96
2022/09/04 19:04:56;;;;;;;2.67;2.33;;;22.60;99.90;;;;;;6060207;28;89577;-96
2022/09/04 19:08:05;;;;;;;2.22;2.03;;;22.60;99.90;;;;;;6054190;28;86899;-96
2022/09/04 19:11:14;;;;;;;2.20;2.00;;;22.60;99.90;;;;;;6055861;28;91037;-95
2022/09/04 19:14:20;;;;;;;2.50;2.30;;;22.60;99.90;;;;;;6064217;28;89603;-96
2022/09/04 19:17:26;;;;;;;2.60;2.15;;;22.60;99.90;;;;;;6053032;28;89332;-96
2022/09/04 19:20:35;;;;;;;2.38;2.17;;;22.60;99.90;;;;;;6070999;28;89282;-96
2022/09/04 19:23:44;;;;;;;2.92;2.17;;;22.60;99.90;;;;;;6059520;28;88235;-96
2022/09/04 19:26:51;;;;;;;2.13;1.92;;;22.60;99.90;;;;;;6063707;28;89274;-96
2022/09/04 19:29:59;;;;;;;2.40;2.20;;;22.60;99.90;;;;;;6064046;28;89020;-96
2022/09/04 19:33:11;;;;;;;2.83;1.98;;;22.60;99.90;;;;;;6051898;28;89443;-96
2022/09/04 19:36:21;;;;;;;2.30;2.10;;;22.60;99.90;;;;;;6049053;28;88341;-96
2022/09/04 19:39:33;;;;;;;2.17;2.00;;;22.60;99.90;;;;;;6053569;28;86580;-96
2022/09/04 19:42:40;;;;;;;3.88;2.38;;;22.60;99.90;;;;;;6053993;28;89108;-96
2022/09/04 19:45:51;;;;;;;2.25;2.05;;;22.60;99.90;;;;;;6054992;28;88106;-95
2022/09/04 19:49:10;;;;;;;4.35;2.83;;;22.60;99.90;;;;;;6050852;28;90513;-96
2022/09/04 19:52:19;;;;;;;2.47;2.28;;;22.60;99.90;;;;;;6062964;28;89819;-95
2022/09/04 19:55:37;;;;;;;2.83;2.28;;;22.60;99.90;;;;;;6055543;28;89052;-96
2022/09/04 19:58:46;;;;;;;2.40;2.15;;;22.60;99.90;;;;;;6054211;28;89185;-96
2022/09/04 20:01:53;;;;;;;2.15;1.95;;;22.60;99.90;;;;;;6059417;28;88417;-96
2022/09/04 20:04:59;;;;;;;2.65;2.10;;;22.60;99.90;;;;;;6051148;28;89196;-95
2022/09/04 20:08:14;;;;;;;2.50;2.30;;;22.60;99.90;;;;;;6063111;28;89587;-95
2022/09/04 20:11:22;;;;;;;3.55;2.65;;;22.60;99.90;;;;;;6042772;28;87543;-95
2022/09/04 20:14:30;;;;;;;2.30;2.10;;;22.60;99.90;;;;;;6053102;28;87970;-95
2022/09/04 20:17:51;;;;;;;3.35;2.20;;;22.60;99.90;;;;;;6054751;28;89083;-96
2022/09/04 20:20:57;;;;;;;2.20;2.00;;;22.60;99.90;;;;;;6052359;28;91712;-96
2022/09/04 20:24:04;;;;;;;2.25;2.05;;;22.50;99.90;;;;;;6042647;28;87036;-96
2022/09/04 20:27:14;;;;;;;2.20;2.00;;;22.50;99.90;;;;;;6049198;28;88395;-95
2022/09/04 20:30:23;;;;;;;2.17;1.98;;;22.50;99.90;;;;;;6044745;28;89006;-95
2022/09/04 20:33:33;;;;;;;2.45;2.10;;;22.50;99.90;;;;;;6056511;28;88072;-95
2022/09/04 20:36:39;;;;;;;2.50;2.30;;;22.60;99.90;;;;;;6058504;28;88862;-95
2022/09/04 20:39:53;;;;;;;2.15;2.05;;;22.50;99.90;;;;;;6040939;28;89422;-96
2022/09/04 20:43:17;;;;;;;2.35;2.15;;;22.60;99.90;;;;;;6051956;28;88323;-96
2022/09/04 20:46:25;;;;;;;2.25;2.08;;;22.50;99.90;;;;;;6053529;28;89153;-96
2022/09/04 20:49:33;;;;;;;2.78;1.95;;;22.50;99.90;;;;;;6057516;28;88931;-95
2022/09/04 20:52:51;;;;;;;2.20;2.05;;;22.60;99.90;;;;;;6045674;28;88908;-95
2022/09/04 20:56:12;;;;;;;2.35;2.13;;;22.50;99.90;;;;;;6043506;28;87755;-96
2022/09/04 20:59:25;;;;;;;2.58;2.30;;;22.50;99.90;;;;;;6061235;28;89315;-96
2022/09/04 21:02:40;;;;;;;2.40;2.20;;;22.50;99.90;;;;;;6059529;28;89410;-95
2022/09/04 21:06:05;;;;;;;3.75;2.25;;;22.60;99.90;;;;;;6061762;28;89504;-95
2022/09/04 21:09:25;;;;;;;2.30;2.10;;;22.50;99.90;;;;;;6052821;28;89599;-95
2022/09/04 21:12:35;;;;;;;2.70;2.30;;;22.50;99.90;;;;;;6042774;28;89475;-94
2022/09/04 21:15:48;;;;;;;2.50;2.30;;;22.60;99.90;;;;;;6048694;28;90031;-94
2022/09/04 21:19:07;;;;;;;2.42;2.10;;;22.50;99.90;;;;;;6062663;28;89704;-96
2022/09/04 21:22:36;;;;;;;2.08;1.88;;;22.50;99.90;;;;;;6061562;28;87956;-95
2022/09/04 21:25:51;;;;;;;2.53;2.28;;;22.50;99.90;;;;;;6062026;28;89279;-95
2022/09/04 21:29:18;;;;;;;2.42;2.22;;;22.50;99.90;;;;;;6053178;28;89079;-96
2022/09/04 21:32:54;;;;;;;2.28;2.08;;;22.50;99.90;;;;;;6049928;28;89629;-95
2022/09/04 21:36:06;;;;;;;3.05;2.60;;;22.50;99.90;;;;;;6051501;28;89622;-95
2022/09/04 21:39:44;;;;;;;2.40;2.20;;;22.50;99.90;;;;;;6051957;28;89269;-95
2022/09/04 21:42:58;;;;;;;2.10;1.90;;;22.50;99.90;;;;;;6039654;28;89768;-96
2022/09/04 21:46:17;;;;;;;2.45;2.20;;;22.50;99.90;;;;;;6041438;28;89151;-95
2022/09/04 21:49:37;;;;;;;2.17;1.98;;;22.50;99.90;;;;;;6057774;28;88491;-96
2022/09/04 21:53:04;;;;;;;2.40;2.20;;;22.50;99.90;;;;;;6056073;28;89371;-96
2022/09/04 21:56:24;;;;;;;4.20;2.60;;;22.50;99.90;;;;;;6042716;28;89231;-95
2022/09/04 21:59:53;;;;;;;2.67;2.28;;;22.50;99.90;;;;;;6057024;28;89051;-96
2022/09/04 22:03:28;;;;;;;2.40;2.20;;;22.50;99.90;;;;;;6047545;28;89341;-94
2022/09/04 22:06:43;;;;;;;2.60;2.40;;;22.50;99.90;;;;;;6051962;28;88160;-95
2022/09/04 22:10:21;;;;;;;3.80;2.30;;;22.50;99.90;;;;;;6050281;28;89771;-95
2022/09/04 22:13:39;;;;;;;3.28;2.70;;;22.50;99.90;;;;;;6009596;28;89537;-95
2022/09/04 22:17:06;;;;;;;2.75;2.50;;;22.50;99.90;;;;;;6046783;28;89458;-96
2022/09/04 22:20:20;;;;;;;2.45;2.25;;;22.50;99.90;;;;;;6037027;28;88291;-95
2022/09/04 22:23:56;;;;;;;3.67;2.65;;;22.50;99.90;;;;;;6049559;28;90126;-95
2022/09/04 22:27:34;;;;;;;2.42;2.20;;;22.50;99.90;;;;;;6061388;28;89167;-96
2022/09/04 22:30:56;;;;;;;2.28;2.08;;;22.50;99.90;;;;;;6044421;28;92060;-94
2022/09/04 22:34:45;;;;;;;3.45;2.45;;;22.50;99.90;;;;;;6055793;28;90016;-95
2022/09/04 22:38:22;;;;;;;2.50;2.30;;;22.50;99.90;;;;;;5986085;28;89531;-95
2022/09/04 22:41:43;;;;;;;2.70;2.40;;;22.50;99.90;;;;;;6046784;28;90607;-96
2022/09/04 22:45:18;;;;;;;2.45;2.25;;;22.50;99.90;;;;;;6065213;28;89069;-96
2022/09/04 22:48:55;;;;;;;2.60;2.25;;;22.50;99.90;;;;;;6065444;28;88265;-95
2022/09/04 22:52:24;;;;;;;2.72;2.40;;;22.50;99.90;;;;;;6066869;28;89589;-95
2022/09/04 22:55:45;;;;;;;2.53;2.33;;;22.50;99.90;;;;;;6056411;28;89922;-95
2022/09/04 22:59:14;;;;;;;2.70;2.40;;;22.50;99.90;;;;;;6063902;28;87232;-95
2022/09/04 23:02:55;;;;;;;2.38;2.17;;;22.50;99.90;;;;;;6045314;28;88325;-95
2022/09/04 23:06:35;;;;;;;2.83;2.22;;;22.50;99.90;;;;;;6051747;28;90621;-96
2022/09/04 23:09:54;;;;;;;2.83;2.30;;;22.50;99.90;;;;;;6054646;28;90403;-95
2022/09/04 23:13:23;;;;;;;2.80;2.50;;;22.50;99.90;;;;;;6060146;28;88589;-95
2022/09/04 23:17:01;;;;;;;2.65;2.45;;;22.50;99.90;;;;;;6044841;28;89738;-96
2022/09/04 23:20:29;;;;;;;2.53;2.33;;;22.50;99.90;;;;;;6009824;28;87965;-95
2022/09/04 23:24:16;;;;;;;2.60;2.40;;;22.50;99.90;;;;;;6059660;28;89208;-96
2022/09/04 23:27:28;;;;;;;2.60;2.40;;;22.50;99.90;;;;;;6022568;28;89224;-95
2022/09/04 23:30:40;;;;;;;2.50;2.30;;;22.50;99.90;;;;;;6050453;28;89160;-96
2022/09/04 23:33:54;;;;;;;2.45;2.22;;;22.50;99.90;;;;;;6065447;28;88787;-95
2022/09/04 23:37:28;;;;;;;3.55;2.30;;;22.50;99.90;;;;;;6064089;28;90844;-95
2022/09/04 23:40:40;;;;;;;3.13;2.50;;;22.40;99.90;;;;;;6032427;28;89162;-94
2022/09/04 23:44:23;;;;;;;2.40;2.20;;;22.50;99.90;;;;;;6052849;28;89083;-95
2022/09/04 23:48:04;;;;;;;3.47;2.35;;;22.50;99.90;;;;;;6062457;28;89589;-96
2022/09/04 23:51:21;;;;;;;4.15;2.20;;;22.50;99.90;;;;;;6064041;28;89368;-95
2022/09/04 23:54:53;;;;;;;2.50;2.30;;;22.50;99.90;;;;;;6057768;28;87995;-95
